createdAt,value
2018-11-14T00:00:26.226Z,15.17
2018-11-14T00:02:54.974Z,12.43
2018-11-14T00:05:23.727Z,10.40
2018-11-14T00:07:52.633Z,13.60
2018-11-14T00:10:21.434Z,12.17
2018-11-14T00:12:50.097Z,11.07
2018-11-14T00:15:20.002Z,11.63
2018-11-14T00:17:49.173Z,13.80
2018-11-14T00:20:17.787Z,13.87
2018-11-14T00:22:47.126Z,12.93
2018-11-14T00:25:15.699Z,12.57
2018-11-14T00:27:44.481Z,12.77
2018-11-14T00:30:17.884Z,15.67
2018-11-14T00:32:46.465Z,13.93
2018-11-14T00:35:15.125Z,12.63
2018-11-14T00:37:44.196Z,14.13
2018-11-14T00:40:13.979Z,16.30
2018-11-14T00:42:43.126Z,16.10
2018-11-14T00:45:13.796Z,15.83
2018-11-14T00:47:43.401Z,12.77
2018-11-14T00:50:13.166Z,14.80
2018-11-14T00:52:42.301Z,13.23
2018-11-14T00:55:16.850Z,14.60
2018-11-14T00:57:46.638Z,13.80
2018-11-14T01:00:17.241Z,13.73
2018-11-14T01:02:46.043Z,13.83
2018-11-14T01:05:15.601Z,15.93
2018-11-14T01:07:44.169Z,15.37
2018-11-14T01:10:14.707Z,14.37
2018-11-14T01:12:43.798Z,15.30
2018-11-14T01:15:14.590Z,15.27
2018-11-14T01:17:43.415Z,14.33
2018-11-14T01:20:13.941Z,14.67
2018-11-14T01:22:43.281Z,15.47
2018-11-14T01:25:12.952Z,15.53
2018-11-14T01:27:41.863Z,15.63
2018-11-14T01:30:14.944Z,17.47
2018-11-14T01:32:44.592Z,20.90
2018-11-14T01:35:13.180Z,17.67
2018-11-14T01:37:41.775Z,15.40
2018-11-14T01:40:16.629Z,13.27
2018-11-14T01:42:46.894Z,14.57
2018-11-14T01:45:15.706Z,14.60
2018-11-14T01:47:44.452Z,13.23
2018-11-14T01:50:13.059Z,14.80
2018-11-14T01:52:41.646Z,13.80
2018-11-14T01:55:12.462Z,13.33
2018-11-14T01:57:41.068Z,16.50
2018-11-14T02:00:11.594Z,20.33
2018-11-14T02:02:40.386Z,22.10
2018-11-14T02:05:09.988Z,19.97
2018-11-14T02:07:38.575Z,15.60
2018-11-14T02:10:09.549Z,17.20
2018-11-14T02:12:38.610Z,19.03
2018-11-14T02:15:09.315Z,15.07
2018-11-14T02:17:38.322Z,11.73
2018-11-14T02:20:07.245Z,12.43
2018-11-14T02:22:36.097Z,21.47
2018-11-14T02:25:04.958Z,32.40
2018-11-14T02:27:33.553Z,33.53
2018-11-14T02:30:02.083Z,49.63
2018-11-14T02:32:30.928Z,61.37
2018-11-14T02:34:59.780Z,27.17
2018-11-14T02:37:28.299Z,32.63
2018-11-14T02:39:56.805Z,27.40
2018-11-14T02:42:25.293Z,18.27
2018-11-14T02:44:53.882Z,42.97
2018-11-14T02:47:22.593Z,18.97
2018-11-14T02:49:51.193Z,18.63
2018-11-14T02:52:19.825Z,14.63
2018-11-14T02:54:48.534Z,34.00
2018-11-14T02:57:17.065Z,37.60
2018-11-14T02:59:45.628Z,21.30
2018-11-14T03:02:14.143Z,45.47
2018-11-14T03:04:42.654Z,91.43
2018-11-14T03:07:11.366Z,29.80
2018-11-14T03:09:39.865Z,36.20
2018-11-14T03:12:08.552Z,82.33
2018-11-14T03:14:37.140Z,117.63
2018-11-14T03:17:05.818Z,76.93
2018-11-14T03:19:34.453Z,156.23
2018-11-14T03:22:03.072Z,191.40
2018-11-14T03:24:31.689Z,67.07
2018-11-14T03:27:00.319Z,66.10
2018-11-14T03:29:28.944Z,81.30
2018-11-14T03:31:57.576Z,151.40
2018-11-14T03:34:26.171Z,41.17
2018-11-14T03:36:54.693Z,74.77
2018-11-14T03:39:23.279Z,76.27
2018-11-14T03:41:51.830Z,46.27
2018-11-14T03:44:20.382Z,43.73
2018-11-14T03:46:48.887Z,50.47
2018-11-14T03:49:17.541Z,28.60
2018-11-14T03:51:46.119Z,61.70
2018-11-14T03:54:14.607Z,36.90
2018-11-14T03:56:43.095Z,21.67
2018-11-14T03:59:11.664Z,24.73
2018-11-14T04:01:40.157Z,25.67
2018-11-14T04:04:08.894Z,17.87
2018-11-14T04:06:37.507Z,29.27
2018-11-14T04:09:10.276Z,40.93
2018-11-14T04:11:38.904Z,30.23
2018-11-14T04:14:07.488Z,28.77
2018-11-14T04:16:35.987Z,28.07
2018-11-14T04:19:05.063Z,38.63
2018-11-14T04:21:33.837Z,52.00
2018-11-14T04:24:02.486Z,73.97
2018-11-14T04:26:31.065Z,75.10
2018-11-14T04:28:59.676Z,76.67
2018-11-14T04:31:28.253Z,139.07
2018-11-14T04:33:56.799Z,79.03
2018-11-14T04:36:25.501Z,58.77
2018-11-14T04:38:55.163Z,62.57
2018-11-14T04:41:23.820Z,28.27
2018-11-14T04:43:52.403Z,19.63
2018-11-14T04:46:20.980Z,35.57
2018-11-14T04:48:49.583Z,57.63
2018-11-14T04:51:19.048Z,140.93
2018-11-14T04:53:47.690Z,79.30
2018-11-14T04:56:16.357Z,93.10
2018-11-14T04:58:44.906Z,126.47
2018-11-14T05:01:13.414Z,115.57
2018-11-14T05:03:41.992Z,55.13
2018-11-14T05:06:10.507Z,67.53
2018-11-14T05:08:39.086Z,105.63
2018-11-14T05:11:07.618Z,81.53
2018-11-14T05:13:36.208Z,55.20
2018-11-14T05:16:04.688Z,211.23
2018-11-14T05:18:33.231Z,194.00
2018-11-14T05:21:02.010Z,97.00
2018-11-14T05:23:30.931Z,126.57
2018-11-14T05:25:59.540Z,198.30
2018-11-14T05:28:28.154Z,158.47
2018-11-14T05:30:56.651Z,297.13
2018-11-14T05:33:25.184Z,221.77
2018-11-14T05:35:54.510Z,83.43
2018-11-14T05:38:23.057Z,67.17
2018-11-14T05:40:52.597Z,163.43
2018-11-14T05:43:22.361Z,91.90
2018-11-14T05:45:51.441Z,277.70
2018-11-14T05:48:20.137Z,171.47
2018-11-14T05:50:48.870Z,89.57
2018-11-14T05:53:17.467Z,42.83
2018-11-14T05:55:46.080Z,75.40
2018-11-14T05:58:15.446Z,119.57
2018-11-14T06:00:44.072Z,172.20
2018-11-14T06:03:12.847Z,117.77
2018-11-14T06:05:41.596Z,292.20
2018-11-14T06:08:10.440Z,87.60
2018-11-14T06:10:39.128Z,134.03
2018-11-14T06:13:08.278Z,112.20
2018-11-14T06:15:36.890Z,67.93
2018-11-14T06:18:06.269Z,198.87
2018-11-14T06:20:35.098Z,51.93
2018-11-14T06:23:04.298Z,56.13
2018-11-14T06:25:34.075Z,65.23
2018-11-14T06:28:03.983Z,85.17
2018-11-14T06:30:33.201Z,153.90
2018-11-14T06:33:03.546Z,243.93
2018-11-14T06:35:32.891Z,125.30
2018-11-14T06:38:01.773Z,205.93
2018-11-14T06:40:30.528Z,75.73
2018-11-14T06:42:59.152Z,286.63
2018-11-14T06:45:29.074Z,235.93
2018-11-14T06:47:58.852Z,168.47
2018-11-14T06:50:27.949Z,103.93
2018-11-14T06:52:58.575Z,126.37
2018-11-14T06:55:27.337Z,94.53
2018-11-14T06:57:56.142Z,94.03
2018-11-14T07:00:26.746Z,205.07
2018-11-14T07:02:56.032Z,168.53
2018-11-14T07:05:24.600Z,149.87
2018-11-14T07:07:53.202Z,181.43
2018-11-14T07:10:24.059Z,129.63
2018-11-14T07:12:52.837Z,64.27
2018-11-14T07:15:23.570Z,83.77
2018-11-14T07:17:53.266Z,35.73
2018-11-14T07:20:24.955Z,98.47
2018-11-14T07:22:53.618Z,72.10
2018-11-14T07:25:22.267Z,157.83
2018-11-14T07:27:50.909Z,118.87
2018-11-14T07:30:20.868Z,159.53
2018-11-14T07:32:50.835Z,233.93
2018-11-14T07:35:19.842Z,96.30
2018-11-14T07:37:58.056Z,150.07
2018-11-14T07:40:26.505Z,69.83
2018-11-14T07:42:55.122Z,21.90
2018-11-14T07:45:23.752Z,85.60
2018-11-14T07:47:53.303Z,60.77
2018-11-14T07:50:22.073Z,89.93
2018-11-14T07:52:50.605Z,36.07
2018-11-14T07:55:20.449Z,28.53
2018-11-14T07:57:48.993Z,20.67
2018-11-14T08:00:18.392Z,40.90
2018-11-14T08:02:47.059Z,72.87
2018-11-14T08:05:15.734Z,30.23
2018-11-14T08:07:44.964Z,29.70
2018-11-14T08:10:14.494Z,42.20
2018-11-14T08:12:43.199Z,39.07
2018-11-14T08:15:12.696Z,104.50
2018-11-14T08:17:41.402Z,40.70
2018-11-14T08:20:12.245Z,17.57
2018-11-14T08:22:41.482Z,25.17
2018-11-14T08:25:10.371Z,77.00
2018-11-14T08:27:39.954Z,26.47
2018-11-14T08:30:09.956Z,39.80
2018-11-14T08:32:39.014Z,32.27
2018-11-14T08:35:09.066Z,153.50
2018-11-14T08:37:37.943Z,49.43
2018-11-14T08:40:08.329Z,22.13
2018-11-14T08:42:37.507Z,38.47
2018-11-14T08:45:08.028Z,25.03
2018-11-14T08:47:37.078Z,34.60
2018-11-14T08:50:07.963Z,45.03
2018-11-14T08:52:36.471Z,39.57
2018-11-14T08:55:05.810Z,23.83
2018-11-14T08:57:35.202Z,27.53
2018-11-14T09:00:04.169Z,19.10
2018-11-14T09:02:32.894Z,58.83
2018-11-14T09:05:01.426Z,40.93
2018-11-14T09:07:30.133Z,65.93
2018-11-14T09:09:58.671Z,32.87
2018-11-14T09:12:27.284Z,39.27
2018-11-14T09:14:56.333Z,101.53
2018-11-14T09:17:24.873Z,24.97
2018-11-14T09:19:53.694Z,36.07
2018-11-14T09:22:22.345Z,26.47
2018-11-14T09:24:50.943Z,32.73
2018-11-14T09:27:20.652Z,25.17
2018-11-14T09:29:49.244Z,22.10
2018-11-14T09:32:17.746Z,18.23
2018-11-14T09:34:46.442Z,19.03
2018-11-14T09:37:15.033Z,39.30
2018-11-14T09:39:43.584Z,37.07
2018-11-14T09:42:12.186Z,27.57
2018-11-14T09:44:41.207Z,17.33
2018-11-14T09:47:09.789Z,19.20
2018-11-14T09:49:38.297Z,20.20
2018-11-14T09:52:06.855Z,15.80
2018-11-14T09:54:35.400Z,15.27
2018-11-14T09:57:04.908Z,16.53
2018-11-14T09:59:33.481Z,14.70
2018-11-14T10:02:02.140Z,14.60
2018-11-14T10:04:30.651Z,10.70
2018-11-14T10:06:59.278Z,14.93
2018-11-14T10:09:27.806Z,23.00
2018-11-14T10:11:56.363Z,25.37
2018-11-14T10:14:24.844Z,34.17
2018-11-14T10:16:53.428Z,36.20
2018-11-14T10:19:21.990Z,28.13
2018-11-14T10:21:50.504Z,23.83
2018-11-14T10:24:19.131Z,45.13
2018-11-14T10:26:47.849Z,56.20
2018-11-14T10:29:16.435Z,56.47
2018-11-14T10:31:45.047Z,53.97
2018-11-14T10:34:13.623Z,46.97
2018-11-14T10:36:42.216Z,45.03
2018-11-14T10:39:12.098Z,42.33
2018-11-14T10:41:41.174Z,39.97
2018-11-14T10:44:09.968Z,42.50
2018-11-14T10:46:38.422Z,52.53
2018-11-14T10:49:07.192Z,52.10
2018-11-14T10:51:36.183Z,85.57
2018-11-14T10:54:05.768Z,101.30
2018-11-14T10:56:34.302Z,98.47
2018-11-14T10:59:03.647Z,72.87
2018-11-14T11:01:37.316Z,71.77
2018-11-14T11:04:10.961Z,68.63
2018-11-14T11:06:44.785Z,61.47
2018-11-14T11:09:18.552Z,51.57
2018-11-14T11:11:52.472Z,43.53
2018-11-14T11:14:26.345Z,49.53
2018-11-14T11:17:00.426Z,44.77
2018-11-14T11:19:30.266Z,51.17
2018-11-14T11:21:58.941Z,54.30
2018-11-14T11:24:27.485Z,48.77
2018-11-14T11:26:56.134Z,49.53
2018-11-14T11:29:24.660Z,55.80
2018-11-14T11:31:53.247Z,37.57
2018-11-14T11:34:22.123Z,43.10
2018-11-14T11:36:51.291Z,42.37
2018-11-14T11:39:20.109Z,36.20
2018-11-14T11:41:48.889Z,29.33
2018-11-14T11:44:19.144Z,19.97
2018-11-14T11:46:47.821Z,11.43
2018-11-14T11:49:16.900Z,9.27
2018-11-14T11:51:45.799Z,12.00
2018-11-14T11:54:14.956Z,10.77
2018-11-14T11:56:43.901Z,10.27
2018-11-14T11:59:12.538Z,8.53
2018-11-14T12:01:41.484Z,6.47
2018-11-14T12:04:10.002Z,10.07
2018-11-14T12:06:38.886Z,20.23
2018-11-14T12:09:10.863Z,25.70
2018-11-14T12:11:40.342Z,26.70
2018-11-14T12:14:09.309Z,23.25
2018-11-14T12:16:38.586Z,29.72
2018-11-14T12:19:07.713Z,28.47
2018-11-14T12:21:36.204Z,37.35
2018-11-14T12:24:05.041Z,23.27
2018-11-14T12:26:33.676Z,23.27
2018-11-14T12:29:02.345Z,26.70
2018-11-14T12:31:30.934Z,32.98
2018-11-14T12:33:59.608Z,28.23
2018-11-14T12:36:28.216Z,22.25
2018-11-14T12:38:56.804Z,18.30
2018-11-14T12:41:25.436Z,18.23
2018-11-14T12:43:54.045Z,17.98
2018-11-14T12:46:22.649Z,13.83
2018-11-14T12:48:52.570Z,9.78
2018-11-14T12:51:21.146Z,12.60
2018-11-14T12:53:49.593Z,16.42
2018-11-14T12:56:18.236Z,17.92
2018-11-14T12:58:46.851Z,20.85
2018-11-14T13:01:15.357Z,15.50
2018-11-14T13:03:44.874Z,15.18
2018-11-14T13:06:13.636Z,16.97
2018-11-14T13:08:42.417Z,13.80
2018-11-14T13:11:11.274Z,11.70
2018-11-14T13:13:46.413Z,4.50
2018-11-14T13:16:16.405Z,4.55
2018-11-14T13:18:46.591Z,4.25
2018-11-14T13:21:15.218Z,4.70
2018-11-14T13:23:44.081Z,2.55
2018-11-14T13:26:12.598Z,3.17
2018-11-14T13:28:41.394Z,4.20
2018-11-14T13:31:09.932Z,2.17
2018-11-14T13:33:38.794Z,2.50
2018-11-14T13:36:08.800Z,2.20
2018-11-14T13:38:37.649Z,3.72
2018-11-14T13:41:06.292Z,2.20
2018-11-14T13:43:34.792Z,2.52
2018-11-14T13:46:03.381Z,2.95
2018-11-14T13:48:31.977Z,2.77
